createdAt,value
2023-02-17T00:00:39.590Z,83.30
2023-02-17T00:02:44.073Z,92.60
2023-02-17T00:04:47.011Z,88.10
2023-02-17T00:06:49.827Z,91.13
2023-02-17T00:08:53.189Z,94.68
2023-02-17T00:10:58.112Z,99.22
2023-02-17T00:13:01.069Z,84.50
2023-02-17T00:15:04.269Z,81.88
2023-02-17T00:17:07.391Z,83.07
2023-02-17T00:19:25.625Z,86.47
2023-02-17T00:21:30.596Z,82.40
2023-02-17T00:23:33.430Z,83.30
2023-02-17T00:25:38.119Z,85.05
2023-02-17T00:27:40.949Z,87.00
2023-02-17T00:29:44.431Z,88.03
2023-02-17T00:31:47.458Z,88.43
2023-02-17T00:33:50.915Z,80.68
2023-02-17T00:35:55.275Z,84.32
2023-02-17T00:37:58.273Z,81.80
2023-02-17T00:40:01.175Z,84.05
2023-02-17T00:42:04.235Z,87.07
2023-02-17T00:44:07.263Z,81.15
2023-02-17T00:46:10.450Z,86.32
2023-02-17T00:48:13.475Z,86.15
2023-02-17T00:50:16.475Z,86.78
2023-02-17T00:52:20.847Z,88.57
2023-02-17T00:54:23.865Z,80.57
2023-02-17T00:56:26.999Z,83.22
2023-02-17T00:58:30.046Z,89.15
2023-02-17T01:00:33.131Z,76.22
2023-02-17T01:02:37.076Z,77.10
2023-02-17T01:04:39.931Z,82.53
2023-02-17T01:06:42.923Z,85.80
2023-02-17T01:08:47.438Z,83.40
2023-02-17T01:10:51.197Z,81.75
2023-02-17T01:12:54.044Z,85.35
2023-02-17T01:14:58.118Z,76.57
2023-02-17T01:17:01.077Z,81.57
2023-02-17T01:19:06.687Z,82.97
2023-02-17T01:21:16.733Z,80.28
2023-02-17T01:23:19.876Z,76.45
2023-02-17T01:25:24.213Z,83.68
2023-02-17T01:27:27.397Z,84.55
2023-02-17T01:29:30.638Z,79.55
2023-02-17T01:31:33.844Z,82.85
2023-02-17T01:33:37.518Z,87.18
2023-02-17T01:35:40.611Z,84.13
2023-02-17T01:37:43.455Z,84.28
2023-02-17T01:39:46.436Z,83.68
2023-02-17T01:41:50.882Z,80.35
2023-02-17T01:44:17.913Z,84.68
2023-02-17T01:46:20.796Z,79.63
2023-02-17T01:48:26.073Z,86.22
2023-02-17T01:50:35.593Z,81.03
2023-02-17T01:52:40.007Z,78.55
2023-02-17T01:54:46.290Z,78.10
2023-02-17T01:56:53.472Z,81.32
2023-02-17T01:59:01.450Z,80.05
2023-02-17T02:01:07.609Z,81.82
2023-02-17T02:03:13.389Z,85.35
2023-02-17T02:05:18.389Z,78.88
2023-02-17T02:07:24.990Z,88.20
2023-02-17T02:09:33.268Z,83.47
2023-02-17T02:11:36.995Z,85.28
2023-02-17T02:13:41.593Z,84.22
2023-02-17T02:15:50.925Z,86.13
2023-02-17T02:18:11.755Z,77.03
2023-02-17T02:21:00.278Z,83.55
2023-02-17T02:23:32.054Z,84.57
2023-02-17T02:25:56.916Z,84.25
2023-02-17T02:28:17.795Z,90.57
2023-02-17T02:30:52.719Z,87.13
2023-02-17T02:33:11.915Z,81.85
2023-02-17T02:35:21.396Z,89.53
2023-02-17T02:37:29.587Z,91.63
2023-02-17T02:39:38.716Z,84.40
2023-02-17T02:41:46.396Z,96.22
2023-02-17T02:43:52.097Z,92.28
2023-02-17T02:45:55.081Z,86.45
2023-02-17T02:47:59.278Z,88.57
2023-02-17T02:50:06.498Z,88.80
2023-02-17T02:52:17.033Z,83.60
2023-02-17T02:54:37.435Z,88.72
2023-02-17T02:56:56.120Z,84.38
2023-02-17T02:59:09.027Z,89.32
2023-02-17T03:01:19.307Z,89.60
2023-02-17T03:03:29.925Z,85.28
2023-02-17T03:05:44.916Z,86.13
2023-02-17T03:07:54.655Z,88.45
2023-02-17T03:10:00.138Z,88.55
2023-02-17T03:14:08.941Z,84.38
2023-02-17T03:16:14.999Z,80.60
2023-02-17T03:18:18.636Z,84.95
2023-02-17T03:20:22.436Z,77.03
2023-02-17T03:22:31.995Z,80.82
2023-02-17T03:24:35.255Z,88.35
2023-02-17T03:26:38.374Z,82.75
2023-02-17T03:28:41.479Z,94.95
2023-02-17T03:30:44.599Z,82.53
2023-02-17T03:32:47.756Z,85.55
2023-02-17T03:34:50.544Z,85.55
2023-02-17T03:36:53.434Z,85.05
2023-02-17T03:38:58.159Z,82.85
2023-02-17T03:41:01.156Z,92.03
2023-02-17T03:43:04.015Z,89.47
2023-02-17T03:45:07.759Z,90.28
2023-02-17T03:47:10.575Z,88.13
2023-02-17T03:49:13.926Z,75.40
2023-02-17T03:51:18.361Z,81.82
2023-02-17T03:53:21.274Z,81.88
2023-02-17T03:55:25.673Z,81.03
2023-02-17T03:57:28.670Z,73.90
2023-02-17T03:59:31.606Z,82.82
2023-02-17T04:01:34.610Z,85.72
2023-02-17T04:03:38.594Z,79.38
2023-02-17T04:05:44.454Z,79.20
2023-02-17T04:07:47.421Z,75.03
2023-02-17T04:09:50.294Z,80.10
2023-02-17T04:11:54.630Z,84.50
2023-02-17T04:13:57.995Z,79.95
2023-02-17T04:16:05.021Z,80.70
2023-02-17T04:18:08.191Z,75.65
2023-02-17T04:20:12.350Z,73.05
2023-02-17T04:22:15.311Z,80.28
2023-02-17T04:24:18.150Z,70.07
2023-02-17T04:26:21.509Z,76.22
2023-02-17T04:28:26.629Z,82.65
2023-02-17T04:30:29.671Z,73.05
2023-02-17T04:32:32.550Z,78.05
2023-02-17T04:34:35.590Z,72.18
2023-02-17T04:36:38.391Z,73.05
2023-02-17T04:38:41.473Z,80.60
2023-02-17T04:40:44.400Z,72.97
2023-02-17T04:42:47.671Z,67.55
2023-02-17T04:44:52.240Z,76.15
2023-02-17T04:46:55.269Z,74.05
2023-02-17T04:48:58.116Z,76.13
2023-02-17T04:51:01.118Z,72.97
2023-02-17T04:53:03.992Z,74.00
2023-02-17T04:55:08.349Z,75.15
2023-02-17T04:57:11.666Z,71.63
2023-02-17T04:59:14.868Z,74.22
2023-02-17T05:01:19.253Z,71.53
2023-02-17T05:03:22.289Z,73.68
2023-02-17T05:05:25.473Z,73.28
2023-02-17T05:07:28.492Z,76.57
2023-02-17T05:09:31.355Z,69.07
2023-02-17T05:11:34.241Z,69.85
2023-02-17T05:13:37.160Z,71.15
2023-02-17T05:15:40.238Z,72.20
2023-02-17T05:17:44.713Z,67.07
2023-02-17T05:19:47.651Z,76.15
2023-02-17T05:21:51.750Z,66.47
2023-02-17T05:23:54.870Z,69.93
2023-02-17T05:25:57.872Z,67.13
2023-02-17T05:28:01.018Z,71.60
2023-02-17T05:30:04.716Z,72.80
2023-02-17T05:32:08.028Z,64.60
2023-02-17T05:34:13.110Z,67.82
2023-02-17T05:36:16.429Z,62.72
2023-02-17T05:38:19.389Z,72.07
2023-02-17T05:40:22.426Z,63.67
2023-02-17T05:42:29.114Z,70.18
2023-02-17T05:44:32.210Z,67.72
2023-02-17T05:46:35.277Z,67.47
2023-02-17T05:48:38.270Z,63.85
2023-02-17T05:50:42.670Z,63.75
2023-02-17T05:52:45.638Z,64.53
2023-02-17T05:54:48.596Z,69.32
2023-02-17T05:56:51.588Z,70.43
2023-02-17T05:58:54.397Z,61.28
2023-02-17T06:00:57.594Z,62.92
2023-02-17T06:03:00.658Z,63.78
2023-02-17T06:05:04.154Z,60.47
2023-02-17T06:07:08.494Z,67.65
2023-02-17T06:09:11.475Z,62.22
2023-02-17T06:11:14.395Z,57.03
2023-02-17T06:13:17.354Z,60.45
2023-02-17T06:15:20.275Z,69.43
2023-02-17T06:17:23.184Z,66.13
2023-02-17T06:19:26.315Z,65.65
2023-02-17T06:21:29.534Z,68.18
2023-02-17T06:23:33.916Z,65.78
2023-02-17T06:25:36.799Z,57.33
2023-02-17T06:27:39.846Z,66.65
2023-02-17T06:29:43.006Z,56.08
2023-02-17T06:31:46.090Z,70.25
2023-02-17T06:33:49.243Z,62.17
2023-02-17T06:35:53.072Z,68.05
2023-02-17T06:37:56.027Z,69.35
2023-02-17T06:40:00.350Z,61.47
2023-02-17T06:42:03.620Z,65.10
2023-02-17T06:44:06.785Z,64.63
2023-02-17T06:46:10.084Z,65.15
2023-02-17T06:48:13.430Z,76.38
2023-02-17T06:50:16.720Z,99.07
2023-02-17T06:52:19.670Z,87.95
2023-02-17T06:54:22.758Z,100.95
2023-02-17T06:56:27.199Z,86.38
2023-02-17T06:58:33.108Z,61.45
2023-02-17T07:00:35.998Z,66.03
2023-02-17T07:02:39.625Z,65.03
2023-02-17T07:04:43.432Z,64.80
2023-02-17T07:06:46.395Z,60.95
2023-02-17T07:08:49.675Z,69.53
2023-02-17T07:10:52.592Z,63.53
2023-02-17T07:12:57.113Z,53.08
2023-02-17T07:15:00.279Z,54.22
2023-02-17T07:17:03.737Z,48.65
2023-02-17T07:19:06.795Z,59.53
2023-02-17T07:21:10.635Z,61.75
2023-02-17T07:23:13.675Z,64.68
2023-02-17T07:25:16.674Z,58.75
2023-02-17T07:27:19.753Z,55.45
2023-02-17T07:29:24.178Z,55.85
2023-02-17T07:31:27.455Z,56.95
2023-02-17T07:33:30.555Z,51.72
2023-02-17T07:35:33.760Z,48.70
2023-02-17T07:37:36.633Z,52.92
2023-02-17T07:39:39.837Z,57.45
2023-02-17T07:41:42.995Z,56.10
2023-02-17T07:43:47.230Z,54.78
2023-02-17T07:45:59.205Z,67.28
2023-02-17T07:48:02.391Z,67.28
2023-02-17T07:50:06.780Z,69.38
2023-02-17T07:52:09.797Z,82.97
2023-02-17T07:54:13.709Z,120.50
2023-02-17T07:56:18.106Z,81.05
2023-02-17T07:58:20.979Z,84.78
2023-02-17T08:00:24.115Z,58.80
2023-02-17T08:02:28.693Z,51.15
2023-02-17T08:04:33.153Z,50.95
2023-02-17T08:06:38.388Z,51.78
2023-02-17T08:09:00.401Z,53.83
2023-02-17T08:11:21.958Z,51.53
2023-02-17T08:13:25.433Z,51.65
2023-02-17T08:15:28.541Z,51.55
2023-02-17T08:17:33.793Z,49.55
2023-02-17T08:19:47.486Z,50.42
2023-02-17T08:21:51.997Z,48.40
2023-02-17T08:23:55.549Z,50.80
2023-02-17T08:25:59.516Z,49.25
2023-02-17T08:28:03.551Z,48.90
2023-02-17T08:30:08.345Z,48.95
2023-02-17T08:32:12.561Z,45.92
2023-02-17T08:34:18.132Z,50.75
2023-02-17T08:38:27.401Z,40.40
2023-02-17T08:40:30.294Z,45.55
2023-02-17T08:42:33.946Z,51.90
2023-02-17T08:44:37.715Z,49.17
2023-02-17T08:46:41.161Z,56.10
2023-02-17T08:48:44.781Z,46.33
2023-02-17T08:50:49.338Z,45.38
2023-02-17T08:52:52.286Z,49.17
2023-02-17T08:54:55.316Z,46.60
2023-02-17T08:56:59.035Z,51.95
2023-02-17T08:59:02.046Z,50.30
2023-02-17T09:01:05.299Z,52.88
2023-02-17T09:03:08.360Z,48.10
2023-02-17T09:05:12.565Z,46.80
2023-02-17T09:07:17.209Z,45.97
2023-02-17T09:09:28.839Z,55.20
2023-02-17T09:11:32.039Z,47.60
2023-02-17T09:13:35.317Z,50.90
2023-02-17T09:15:39.354Z,48.17
2023-02-17T09:17:42.381Z,47.60
2023-02-17T09:19:45.442Z,53.75
2023-02-17T09:21:48.809Z,49.13
2023-02-17T09:23:54.143Z,43.05
2023-02-17T09:26:05.154Z,46.70
2023-02-17T09:28:08.394Z,43.78
2023-02-17T09:30:12.432Z,45.70
2023-02-17T09:32:15.562Z,49.50
2023-02-17T09:34:18.932Z,45.10
2023-02-17T09:36:25.319Z,42.40
2023-02-17T09:38:28.235Z,48.58
2023-02-17T09:40:43.471Z,52.45
2023-02-17T09:42:46.470Z,43.33
2023-02-17T09:44:53.235Z,40.50
2023-02-17T09:47:03.560Z,35.05
2023-02-17T09:49:11.895Z,37.40
2023-02-17T09:51:23.257Z,41.88
2023-02-17T09:53:31.834Z,40.33
2023-02-17T09:55:42.995Z,40.30
2023-02-17T09:57:56.771Z,45.00
2023-02-17T10:00:05.742Z,37.22
2023-02-17T10:02:26.676Z,41.92
2023-02-17T10:04:36.311Z,49.20
2023-02-17T10:06:41.834Z,35.67
2023-02-17T10:08:51.808Z,46.03
2023-02-17T10:11:02.304Z,42.35
2023-02-17T10:13:07.370Z,38.47
2023-02-17T10:15:17.875Z,41.03
2023-02-17T10:17:30.290Z,42.90
2023-02-17T10:19:38.190Z,39.50
2023-02-17T10:21:46.593Z,36.90
2023-02-17T10:23:51.737Z,43.50
2023-02-17T10:26:23.602Z,38.88
2023-02-17T10:28:40.037Z,41.15
2023-02-17T10:30:53.474Z,44.95
2023-02-17T10:33:02.935Z,42.70
2023-02-17T10:35:15.327Z,39.10
2023-02-17T10:37:26.073Z,36.75
2023-02-17T10:39:47.231Z,42.25
2023-02-17T10:41:54.803Z,45.35
2023-02-17T10:43:58.990Z,38.60
2023-02-17T10:46:06.081Z,41.17
2023-02-17T10:48:15.937Z,41.30
2023-02-17T10:50:22.230Z,43.53
2023-02-17T10:52:33.191Z,45.83
2023-02-17T10:54:39.829Z,39.72
2023-02-17T10:56:45.422Z,46.17
2023-02-17T10:58:55.437Z,42.50
2023-02-17T11:00:58.609Z,40.08
2023-02-17T11:03:01.797Z,36.38
2023-02-17T11:05:06.428Z,39.60
2023-02-17T11:07:12.553Z,42.50
2023-02-17T11:09:21.597Z,42.45
2023-02-17T11:11:27.314Z,39.28
2023-02-17T11:15:46.386Z,39.67
2023-02-17T11:17:49.875Z,40.03
2023-02-17T11:19:58.763Z,42.72
2023-02-17T11:22:04.924Z,40.40
2023-02-17T11:24:12.332Z,43.28
2023-02-17T11:26:19.352Z,44.72
2023-02-17T11:28:25.292Z,45.42
2023-02-17T11:30:30.525Z,48.20
2023-02-17T11:32:36.518Z,39.55
2023-02-17T11:34:41.476Z,36.08
2023-02-17T11:36:46.339Z,48.13
2023-02-17T11:38:49.325Z,42.38
2023-02-17T11:41:01.606Z,39.42
2023-02-17T11:43:05.839Z,39.42
2023-02-17T11:45:17.752Z,40.60
2023-02-17T11:47:30.351Z,31.75
2023-02-17T11:49:56.962Z,37.72
2023-02-17T11:52:11.437Z,29.27
2023-02-17T11:54:23.597Z,29.33
2023-02-17T11:56:33.483Z,39.83
2023-02-17T11:59:01.439Z,37.33
2023-02-17T12:01:18.122Z,35.15
2023-02-17T12:03:57.553Z,34.75
2023-02-17T12:06:12.619Z,41.10
2023-02-17T12:08:24.295Z,29.25
2023-02-17T12:10:45.764Z,33.15
2023-02-17T12:13:01.796Z,26.05
2023-02-17T12:15:24.670Z,33.13
2023-02-17T12:17:40.181Z,28.90
2023-02-17T12:19:57.436Z,28.27
2023-02-17T12:22:14.490Z,33.25
2023-02-17T12:24:43.714Z,34.55
2023-02-17T12:26:48.789Z,72.93
2023-02-17T12:29:03.710Z,274.05
2023-02-17T12:31:15.487Z,372.95
2023-02-17T12:33:45.512Z,147.50
2023-02-17T12:35:53.302Z,144.27
2023-02-17T12:38:01.240Z,258.13
2023-02-17T12:40:08.816Z,312.88
2023-02-17T12:42:18.183Z,318.65
2023-02-17T12:44:25.672Z,116.55
2023-02-17T12:46:33.482Z,56.03
2023-02-17T12:48:40.101Z,62.70
2023-02-17T12:50:53.311Z,70.30
2023-02-17T12:53:02.388Z,35.90
2023-02-17T12:55:13.574Z,44.92
2023-02-17T12:57:19.755Z,33.33
2023-02-17T12:59:27.318Z,649.67
2023-02-17T13:01:33.034Z,236.02
2023-02-17T13:03:37.313Z,228.20
2023-02-17T13:05:44.561Z,122.80
2023-02-17T13:07:52.630Z,42.03
2023-02-17T13:09:58.074Z,59.83
2023-02-17T13:14:25.458Z,13.25
2023-02-17T13:16:28.856Z,27.92
2023-02-17T13:18:34.105Z,53.08
2023-02-17T13:20:53.531Z,86.30
2023-02-17T13:23:15.316Z,140.73
2023-02-17T13:25:30.876Z,198.63
2023-02-17T13:27:36.121Z,41.58
2023-02-17T13:29:39.512Z,22.33
2023-02-17T13:31:52.214Z,23.02
2023-02-17T13:33:57.160Z,36.22
2023-02-17T13:36:00.286Z,16.42
2023-02-17T13:38:04.208Z,19.65
2023-02-17T13:40:42.591Z,15.05
2023-02-17T13:42:48.701Z,19.20
2023-02-17T13:44:52.225Z,20.45
2023-02-17T13:46:59.554Z,45.33
2023-02-17T13:49:05.472Z,46.65
2023-02-17T13:51:25.713Z,34.13
2023-02-17T13:53:31.072Z,35.72
2023-02-17T13:55:33.911Z,146.45
2023-02-17T13:57:37.993Z,114.95
2023-02-17T13:59:42.475Z,22.10
2023-02-17T14:01:46.814Z,25.42
2023-02-17T14:03:52.122Z,34.58
2023-02-17T14:05:56.837Z,29.05
2023-02-17T14:08:04.636Z,20.08
2023-02-17T14:10:19.273Z,29.73
2023-02-17T14:12:24.589Z,23.30
2023-02-17T14:14:31.429Z,12.68
2023-02-17T14:16:37.632Z,29.55
2023-02-17T14:18:44.275Z,27.27
2023-02-17T14:20:47.349Z,22.95
2023-02-17T14:23:04.138Z,19.52
2023-02-17T14:25:11.870Z,21.48
2023-02-17T14:27:14.869Z,9.85
2023-02-17T14:29:17.870Z,20.75
2023-02-17T14:31:22.093Z,22.73
2023-02-17T14:33:26.954Z,8.90
2023-02-17T14:35:30.629Z,22.70
2023-02-17T14:37:37.106Z,13.55
2023-02-17T14:39:40.119Z,30.52
2023-02-17T14:41:43.631Z,30.02
2023-02-17T14:43:47.229Z,27.42
2023-02-17T14:45:50.750Z,28.77
2023-02-17T14:47:53.754Z,37.78
2023-02-17T14:49:58.197Z,25.83
2023-02-17T14:52:16.386Z,26.83
2023-02-17T14:54:19.761Z,28.88
2023-02-17T14:56:25.994Z,40.63
2023-02-17T14:58:30.995Z,26.58
2023-02-17T15:00:33.868Z,22.00
2023-02-17T15:02:37.876Z,24.58
2023-02-17T15:04:40.804Z,20.90
2023-02-17T15:06:47.957Z,24.67
2023-02-17T15:08:51.620Z,31.35
2023-02-17T15:10:55.678Z,30.05
2023-02-17T15:12:58.759Z,24.77
2023-02-17T15:15:01.919Z,30.88
2023-02-17T15:17:04.798Z,25.90
2023-02-17T15:19:07.717Z,28.70
2023-02-17T15:21:27.715Z,28.30
2023-02-17T15:23:34.642Z,43.08
2023-02-17T15:25:37.514Z,45.50
2023-02-17T15:27:40.476Z,41.45
2023-02-17T15:29:43.356Z,29.20
2023-02-17T15:31:47.322Z,31.90
2023-02-17T15:33:56.193Z,31.77
2023-02-17T15:35:59.194Z,34.88
2023-02-17T15:38:02.484Z,35.05
2023-02-17T15:40:12.833Z,54.28
2023-02-17T15:42:15.755Z,62.17
2023-02-17T15:44:21.256Z,44.83
2023-02-17T15:46:29.725Z,122.10
2023-02-17T15:48:34.435Z,43.45
2023-02-17T15:50:37.632Z,58.92
2023-02-17T15:52:40.661Z,140.32
2023-02-17T15:54:44.230Z,28.33
2023-02-17T15:56:51.071Z,31.23
2023-02-17T15:58:54.836Z,38.22
2023-02-17T16:01:01.990Z,35.53
2023-02-17T16:03:05.319Z,43.20
2023-02-17T16:05:12.159Z,34.80
2023-02-17T16:07:15.151Z,57.60
2023-02-17T16:09:20.390Z,41.83
2023-02-17T16:11:24.370Z,67.55
2023-02-17T16:13:28.799Z,46.72
2023-02-17T16:15:33.511Z,40.63
2023-02-17T16:17:36.551Z,36.20
2023-02-17T16:19:39.470Z,21.15
2023-02-17T16:21:42.648Z,22.65
2023-02-17T16:23:45.797Z,35.58
2023-02-17T16:25:49.673Z,13.27
2023-02-17T16:27:53.913Z,39.33
2023-02-17T16:29:58.385Z,35.97
2023-02-17T16:32:01.620Z,31.52
2023-02-17T16:34:04.755Z,29.45
2023-02-17T16:36:15.521Z,25.80
2023-02-17T16:38:23.206Z,29.05
2023-02-17T16:40:29.344Z,33.90
2023-02-17T16:42:32.268Z,28.70
2023-02-17T16:44:35.556Z,32.35
2023-02-17T16:46:44.965Z,27.67
2023-02-17T16:48:47.876Z,27.83
2023-02-17T16:50:50.917Z,23.42
2023-02-17T16:52:55.514Z,18.38
2023-02-17T16:54:58.608Z,22.17
2023-02-17T16:57:01.538Z,21.77
2023-02-17T16:59:05.506Z,26.27
2023-02-17T17:01:12.877Z,28.55
2023-02-17T17:03:17.415Z,34.67
2023-02-17T17:05:21.714Z,30.50
2023-02-17T17:07:24.671Z,45.50
2023-02-17T17:09:28.345Z,24.10
2023-02-17T17:11:32.391Z,42.80
2023-02-17T17:13:35.310Z,25.30
2023-02-17T17:15:38.998Z,25.98
2023-02-17T17:17:44.671Z,25.42
2023-02-17T17:19:49.072Z,36.38
2023-02-17T17:21:52.081Z,38.20
2023-02-17T17:23:55.350Z,27.15
2023-02-17T17:25:58.391Z,41.10
2023-02-17T17:28:01.432Z,23.88
2023-02-17T17:30:05.879Z,26.40
2023-02-17T17:32:10.166Z,14.63
2023-02-17T17:34:13.076Z,32.22
2023-02-17T17:36:22.871Z,29.45
2023-02-17T17:38:25.753Z,21.52
2023-02-17T17:40:31.917Z,21.63
2023-02-17T17:42:37.990Z,23.13
2023-02-17T17:44:40.941Z,25.45
2023-02-17T17:46:43.873Z,23.23
2023-02-17T17:48:47.035Z,25.48
2023-02-17T17:50:50.474Z,27.88
2023-02-17T17:52:55.151Z,26.45
2023-02-17T17:54:57.993Z,19.92
2023-02-17T17:57:00.954Z,22.40
2023-02-17T17:59:05.134Z,25.92
2023-02-17T18:01:08.057Z,19.98
2023-02-17T18:03:10.881Z,25.77
2023-02-17T18:05:13.836Z,24.33
2023-02-17T18:07:17.315Z,20.75
2023-02-17T18:09:31.622Z,20.58
2023-02-17T18:11:35.884Z,22.13
2023-02-17T18:13:38.917Z,44.85
2023-02-17T18:15:42.090Z,21.52
2023-02-17T18:17:48.294Z,21.67
2023-02-17T18:19:55.285Z,21.50
2023-02-17T18:21:58.159Z,21.73
2023-02-17T18:24:00.998Z,24.73
2023-02-17T18:26:06.009Z,30.40
2023-02-17T18:28:09.279Z,81.70
2023-02-17T18:30:15.390Z,63.45
2023-02-17T18:32:18.234Z,78.88
2023-02-17T18:34:21.443Z,50.40
2023-02-17T18:36:26.708Z,16.17
2023-02-17T18:38:31.241Z,18.42
2023-02-17T18:40:34.301Z,25.45
2023-02-17T18:42:39.389Z,16.58
2023-02-17T18:44:42.208Z,17.60
2023-02-17T18:46:45.088Z,18.30
2023-02-17T18:48:47.988Z,25.52
2023-02-17T18:50:51.226Z,41.60
2023-02-17T18:52:54.306Z,85.68
2023-02-17T18:54:57.305Z,87.78
2023-02-17T18:57:00.167Z,103.47
2023-02-17T18:59:05.924Z,37.45
2023-02-17T19:01:16.029Z,27.02
2023-02-17T19:03:18.864Z,24.90
2023-02-17T19:05:21.784Z,29.58
2023-02-17T19:07:24.703Z,20.08
2023-02-17T19:09:27.524Z,31.23
2023-02-17T19:11:30.584Z,24.90
2023-02-17T19:13:33.443Z,25.63
2023-02-17T19:15:38.215Z,33.80
2023-02-17T19:17:41.102Z,29.67
2023-02-17T19:19:44.023Z,42.22
2023-02-17T19:21:46.942Z,87.15
2023-02-17T19:23:50.672Z,35.78
2023-02-17T19:25:53.474Z,27.85
2023-02-17T19:27:56.341Z,30.75
2023-02-17T19:29:59.131Z,54.08
2023-02-17T19:32:04.823Z,67.70
2023-02-17T19:36:13.332Z,28.98
2023-02-17T19:38:16.148Z,29.30
2023-02-17T19:40:19.314Z,52.78
2023-02-17T19:42:22.347Z,32.50
2023-02-17T19:44:25.551Z,32.15
2023-02-17T19:46:28.556Z,24.73
2023-02-17T19:48:33.539Z,27.40
2023-02-17T19:50:37.773Z,21.53
2023-02-17T19:52:40.692Z,25.95
2023-02-17T19:54:43.671Z,22.58
2023-02-17T19:56:48.714Z,20.77
2023-02-17T19:58:52.426Z,20.48
2023-02-17T20:00:55.312Z,25.27
2023-02-17T20:02:58.225Z,18.77
2023-02-17T20:05:02.831Z,22.10
2023-02-17T20:07:05.811Z,23.67
2023-02-17T20:09:11.214Z,19.67
2023-02-17T20:11:14.826Z,16.65
2023-02-17T20:13:18.032Z,21.60
2023-02-17T20:15:20.910Z,22.80
2023-02-17T20:17:24.030Z,21.48
2023-02-17T20:19:28.066Z,25.90
2023-02-17T20:21:34.151Z,24.50
2023-02-17T20:23:37.350Z,27.50
2023-02-17T20:25:40.961Z,24.75
2023-02-17T20:27:43.771Z,25.92
2023-02-17T20:29:46.772Z,28.88
2023-02-17T20:31:49.931Z,21.95
2023-02-17T20:33:53.552Z,34.75
2023-02-17T20:35:56.470Z,27.83
2023-02-17T20:38:00.912Z,20.90
2023-02-17T20:40:04.052Z,23.63
2023-02-17T20:42:07.354Z,18.35
2023-02-17T20:44:11.788Z,21.25
2023-02-17T20:46:17.171Z,22.95
2023-02-17T20:48:21.033Z,17.58
2023-02-17T20:50:23.995Z,21.98
2023-02-17T20:52:26.816Z,18.67
2023-02-17T20:54:31.372Z,33.85
2023-02-17T20:56:37.472Z,33.75
2023-02-17T20:58:40.363Z,38.55
2023-02-17T21:00:43.376Z,30.40
2023-02-17T21:02:46.341Z,21.20
2023-02-17T21:04:49.392Z,37.65
2023-02-17T21:06:52.394Z,30.23
2023-02-17T21:08:57.240Z,32.08
2023-02-17T21:11:01.614Z,42.80
2023-02-17T21:13:04.455Z,27.85
2023-02-17T21:15:08.256Z,23.73
2023-02-17T21:17:11.458Z,21.50
2023-02-17T21:19:14.303Z,19.23
2023-02-17T21:21:17.296Z,15.30
2023-02-17T21:23:21.595Z,17.55
2023-02-17T21:25:24.434Z,18.10
2023-02-17T21:27:28.903Z,20.70
2023-02-17T21:29:31.754Z,17.55
2023-02-17T21:31:35.040Z,17.35
2023-02-17T21:33:42.300Z,20.13
2023-02-17T21:35:45.434Z,16.83
2023-02-17T21:37:48.233Z,19.20
2023-02-17T21:39:51.152Z,22.80
2023-02-17T21:41:54.327Z,28.00
2023-02-17T21:44:18.080Z,25.92
2023-02-17T21:46:22.331Z,32.50
2023-02-17T21:48:25.491Z,32.70
2023-02-17T21:50:28.463Z,27.30
2023-02-17T21:52:31.431Z,36.47
2023-02-17T21:54:35.236Z,26.80
2023-02-17T21:56:39.358Z,25.73
2023-02-17T21:58:46.316Z,27.67
2023-02-17T22:00:50.788Z,26.15
2023-02-17T22:02:53.712Z,21.90
2023-02-17T22:04:57.035Z,24.00
2023-02-17T22:06:59.952Z,32.20
2023-02-17T22:09:04.000Z,29.05
2023-02-17T22:11:06.910Z,16.50
2023-02-17T22:13:10.675Z,18.48
2023-02-17T22:15:16.396Z,12.43
2023-02-17T22:19:25.105Z,16.67
2023-02-17T22:21:28.481Z,21.17
2023-02-17T22:23:31.349Z,10.85
2023-02-17T22:25:34.350Z,13.68
2023-02-17T22:27:37.229Z,11.45
2023-02-17T22:29:40.112Z,10.00
2023-02-17T22:31:43.084Z,14.45
2023-02-17T22:33:48.001Z,14.82
2023-02-17T22:35:58.480Z,8.57
2023-02-17T22:38:01.492Z,10.55
2023-02-17T22:40:05.671Z,11.77
2023-02-17T22:42:08.641Z,11.00
2023-02-17T22:44:11.509Z,12.20
2023-02-17T22:46:16.733Z,6.50
2023-02-17T22:48:19.865Z,11.15
2023-02-17T22:50:24.394Z,11.48
2023-02-17T22:52:27.270Z,14.75
2023-02-17T22:54:31.512Z,10.05
2023-02-17T22:56:34.508Z,10.43
2023-02-17T22:58:37.911Z,6.95
2023-02-17T23:00:40.709Z,8.25
2023-02-17T23:02:43.632Z,9.40
2023-02-17T23:04:48.364Z,5.90
2023-02-17T23:06:52.803Z,8.77
2023-02-17T23:08:56.686Z,11.18
2023-02-17T23:11:00.272Z,8.13
2023-02-17T23:13:03.072Z,10.55
2023-02-17T23:15:06.472Z,9.73
2023-02-17T23:17:11.672Z,5.50
2023-02-17T23:19:16.618Z,7.13
2023-02-17T23:21:20.514Z,8.73
2023-02-17T23:23:25.433Z,7.13
2023-02-17T23:25:28.318Z,6.65
2023-02-17T23:27:31.352Z,12.48
2023-02-17T23:29:34.433Z,6.63
2023-02-17T23:31:38.516Z,7.68
2023-02-17T23:33:41.553Z,6.43
2023-02-17T23:35:48.113Z,7.93
2023-02-17T23:37:51.314Z,6.45
2023-02-17T23:39:56.046Z,9.02
2023-02-17T23:41:58.915Z,8.32
2023-02-17T23:44:02.155Z,6.68
2023-02-17T23:46:05.509Z,7.05
2023-02-17T23:48:08.596Z,7.43
2023-02-17T23:50:12.328Z,6.90
2023-02-17T23:52:15.499Z,6.88
2023-02-17T23:54:18.635Z,8.65
2023-02-17T23:56:26.539Z,5.05
2023-02-17T23:58:29.754Z,5.55
